sensor_id;sensor_type;location;lat;lon;timestamp;temperature;humidity
16655;DHT22;8441;51.344;7.022;2024-03-08T00:00:44;2.40;99.90
16655;DHT22;8441;51.344;7.022;2024-03-08T00:03:11;2.40;99.90
16655;DHT22;8441;51.344;7.022;2024-03-08T00:05:39;2.30;99.90
16655;DHT22;8441;51.344;7.022;2024-03-08T00:08:08;2.30;99.90
16655;DHT22;8441;51.344;7.022;2024-03-08T00:10:36;2.30;99.90
16655;DHT22;8441;51.344;7.022;2024-03-08T00:13:05;2.30;99.90
16655;DHT22;8441;51.344;7.022;2024-03-08T00:15:32;2.30;99.90
16655;DHT22;8441;51.344;7.022;2024-03-08T00:18:00;2.20;99.90
16655;DHT22;8441;51.344;7.022;2024-03-08T00:20:27;2.20;99.90
16655;DHT22;8441;51.344;7.022;2024-03-08T00:22:55;2.30;99.90
16655;DHT22;8441;51.344;7.022;2024-03-08T00:25:25;2.20;99.90
16655;DHT22;8441;51.344;7.022;2024-03-08T00:27:52;2.20;99.90
16655;DHT22;8441;51.344;7.022;2024-03-08T00:30:21;2.20;99.90
16655;DHT22;8441;51.344;7.022;2024-03-08T00:32:51;2.20;99.90
16655;DHT22;8441;51.344;7.022;2024-03-08T00:35:18;2.10;99.90
16655;DHT22;8441;51.344;7.022;2024-03-08T00:37:45;2.10;99.90
16655;DHT22;8441;51.344;7.022;2024-03-08T00:40:13;2.10;99.90
16655;DHT22;8441;51.344;7.022;2024-03-08T00:42:42;2.00;99.90
16655;DHT22;8441;51.344;7.022;2024-03-08T00:45:10;2.00;99.90
16655;DHT22;8441;51.344;7.022;2024-03-08T00:47:38;1.90;99.90
16655;DHT22;8441;51.344;7.022;2024-03-08T00:50:06;1.90;99.90
16655;DHT22;8441;51.344;7.022;2024-03-08T00:52:34;1.90;99.90
16655;DHT22;8441;51.344;7.022;2024-03-08T00:55:01;1.90;99.90
16655;DHT22;8441;51.344;7.022;2024-03-08T00:57:28;1.90;99.90
16655;DHT22;8441;51.344;7.022;2024-03-08T00:59:57;1.90;99.90
16655;DHT22;8441;51.344;7.022;2024-03-08T01:02:24;1.90;99.90
16655;DHT22;8441;51.344;7.022;2024-03-08T01:04:52;1.80;99.90
16655;DHT22;8441;51.344;7.022;2024-03-08T01:07:19;1.80;99.90
16655;DHT22;8441;51.344;7.022;2024-03-08T01:09:46;1.70;99.90
16655;DHT22;8441;51.344;7.022;2024-03-08T01:12:13;1.80;99.90
16655;DHT22;8441;51.344;7.022;2024-03-08T01:14:41;1.70;99.90
16655;DHT22;8441;51.344;7.022;2024-03-08T01:17:08;1.70;99.90
16655;DHT22;8441;51.344;7.022;2024-03-08T01:19:37;1.70;99.90
16655;DHT22;8441;51.344;7.022;2024-03-08T01:22:05;1.70;99.90
16655;DHT22;8441;51.344;7.022;2024-03-08T01:24:33;1.60;99.90
16655;DHT22;8441;51.344;7.022;2024-03-08T01:27:00;1.60;99.90
16655;DHT22;8441;51.344;7.022;2024-03-08T01:29:28;1.60;99.90
16655;DHT22;8441;51.344;7.022;2024-03-08T01:31:56;1.70;99.90
16655;DHT22;8441;51.344;7.022;2024-03-08T01:34:25;1.70;99.90
16655;DHT22;8441;51.344;7.022;2024-03-08T01:36:54;1.70;99.90
16655;DHT22;8441;51.344;7.022;2024-03-08T01:39:22;1.70;99.90
16655;DHT22;8441;51.344;7.022;2024-03-08T01:41:49;1.60;99.90
16655;DHT22;8441;51.344;7.022;2024-03-08T01:44:17;1.60;99.90
16655;DHT22;8441;51.344;7.022;2024-03-08T01:46:44;1.60;99.90
16655;DHT22;8441;51.344;7.022;2024-03-08T01:49:13;1.50;99.90
16655;DHT22;8441;51.344;7.022;2024-03-08T01:51:42;1.50;99.90
16655;DHT22;8441;51.344;7.022;2024-03-08T01:54:10;1.50;99.90
16655;DHT22;8441;51.344;7.022;2024-03-08T01:56:39;1.50;99.90
16655;DHT22;8441;51.344;7.022;2024-03-08T01:59:06;1.50;99.90
16655;DHT22;8441;51.344;7.022;2024-03-08T02:01:34;1.50;99.90
16655;DHT22;8441;51.344;7.022;2024-03-08T02:04:02;1.50;99.90
16655;DHT22;8441;51.344;7.022;2024-03-08T02:06:31;1.50;99.90
16655;DHT22;8441;51.344;7.022;2024-03-08T02:09:00;1.60;99.90
16655;DHT22;8441;51.344;7.022;2024-03-08T02:11:31;1.60;99.90
16655;DHT22;8441;51.344;7.022;2024-03-08T02:13:59;1.60;99.90
16655;DHT22;8441;51.344;7.022;2024-03-08T02:16:26;1.60;99.90
16655;DHT22;8441;51.344;7.022;2024-03-08T02:18:53;1.60;99.90
16655;DHT22;8441;51.344;7.022;2024-03-08T02:21:23;1.60;99.90
16655;DHT22;8441;51.344;7.022;2024-03-08T02:23:51;1.50;99.90
16655;DHT22;8441;51.344;7.022;2024-03-08T02:26:18;1.60;99.90
16655;DHT22;8441;51.344;7.022;2024-03-08T02:28:46;1.60;99.90
16655;DHT22;8441;51.344;7.022;2024-03-08T02:31:13;1.60;99.90
16655;DHT22;8441;51.344;7.022;2024-03-08T02:33:41;1.50;99.90
16655;DHT22;8441;51.344;7.022;2024-03-08T02:36:08;1.50;99.90
16655;DHT22;8441;51.344;7.022;2024-03-08T02:38:37;1.50;99.90
16655;DHT22;8441;51.344;7.022;2024-03-08T02:41:06;1.50;99.90
16655;DHT22;8441;51.344;7.022;2024-03-08T02:43:34;1.50;99.90
16655;DHT22;8441;51.344;7.022;2024-03-08T02:46:00;1.60;99.90
16655;DHT22;8441;51.344;7.022;2024-03-08T02:48:28;1.50;99.90
16655;DHT22;8441;51.344;7.022;2024-03-08T02:50:55;1.50;99.90
16655;DHT22;8441;51.344;7.022;2024-03-08T02:53:22;1.40;99.90
16655;DHT22;8441;51.344;7.022;2024-03-08T02:55:51;1.40;99.90
16655;DHT22;8441;51.344;7.022;2024-03-08T02:58:19;1.50;99.90
16655;DHT22;8441;51.344;7.022;2024-03-08T03:00:46;1.40;99.90
16655;DHT22;8441;51.344;7.022;2024-03-08T03:03:13;1.40;99.90
16655;DHT22;8441;51.344;7.022;2024-03-08T03:05:40;1.40;99.90
16655;DHT22;8441;51.344;7.022;2024-03-08T03:08:08;1.40;99.90
16655;DHT22;8441;51.344;7.022;2024-03-08T03:10:37;1.50;99.90
16655;DHT22;8441;51.344;7.022;2024-03-08T03:13:06;1.50;99.90
16655;DHT22;8441;51.344;7.022;2024-03-08T03:15:34;1.50;99.90
16655;DHT22;8441;51.344;7.022;2024-03-08T03:18:02;1.50;99.90
16655;DHT22;8441;51.344;7.022;2024-03-08T03:20:29;1.40;99.90
16655;DHT22;8441;51.344;7.022;2024-03-08T03:23:03;1.30;99.90
16655;DHT22;8441;51.344;7.022;2024-03-08T03:25:30;1.40;99.90
16655;DHT22;8441;51.344;7.022;2024-03-08T03:28:01;1.50;99.90
16655;DHT22;8441;51.344;7.022;2024-03-08T03:30:29;1.40;99.90
16655;DHT22;8441;51.344;7.022;2024-03-08T03:32:59;1.40;99.90
16655;DHT22;8441;51.344;7.022;2024-03-08T03:35:27;1.40;99.90
16655;DHT22;8441;51.344;7.022;2024-03-08T03:37:55;1.40;99.90
16655;DHT22;8441;51.344;7.022;2024-03-08T03:40:32;1.30;99.90
16655;DHT22;8441;51.344;7.022;2024-03-08T03:43:01;1.30;99.90
16655;DHT22;8441;51.344;7.022;2024-03-08T03:45:31;1.30;99.90
16655;DHT22;8441;51.344;7.022;2024-03-08T03:48:01;1.20;99.90
16655;DHT22;8441;51.344;7.022;2024-03-08T03:50:28;1.30;99.90
16655;DHT22;8441;51.344;7.022;2024-03-08T03:52:56;1.20;99.90
16655;DHT22;8441;51.344;7.022;2024-03-08T03:55:23;1.20;99.90
16655;DHT22;8441;51.344;7.022;2024-03-08T03:57:51;1.20;99.90
16655;DHT22;8441;51.344;7.022;2024-03-08T04:00:19;1.20;99.90
16655;DHT22;8441;51.344;7.022;2024-03-08T04:02:48;1.20;99.90
16655;DHT22;8441;51.344;7.022;2024-03-08T04:05:16;1.20;99.90
16655;DHT22;8441;51.344;7.022;2024-03-08T04:07:44;1.20;99.90
16655;DHT22;8441;51.344;7.022;2024-03-08T04:10:12;1.20;99.90
16655;DHT22;8441;51.344;7.022;2024-03-08T04:12:39;1.20;99.90
16655;DHT22;8441;51.344;7.022;2024-03-08T04:15:07;1.20;99.90
16655;DHT22;8441;51.344;7.022;2024-03-08T04:17:36;1.20;99.90
16655;DHT22;8441;51.344;7.022;2024-03-08T04:20:06;1.30;99.90
16655;DHT22;8441;51.344;7.022;2024-03-08T04:22:36;1.30;99.90
16655;DHT22;8441;51.344;7.022;2024-03-08T04:25:04;1.30;99.90
16655;DHT22;8441;51.344;7.022;2024-03-08T04:27:32;1.30;99.90
16655;DHT22;8441;51.344;7.022;2024-03-08T04:30:00;1.30;99.90
16655;DHT22;8441;51.344;7.022;2024-03-08T04:32:27;1.30;99.90
16655;DHT22;8441;51.344;7.022;2024-03-08T04:34:55;1.30;99.90
16655;DHT22;8441;51.344;7.022;2024-03-08T04:37:24;1.20;99.90
16655;DHT22;8441;51.344;7.022;2024-03-08T04:39:51;1.10;99.90
16655;DHT22;8441;51.344;7.022;2024-03-08T04:42:19;1.10;99.90
16655;DHT22;8441;51.344;7.022;2024-03-08T04:44:46;1.10;99.90
16655;DHT22;8441;51.344;7.022;2024-03-08T04:47:14;1.20;99.90
16655;DHT22;8441;51.344;7.022;2024-03-08T04:49:43;1.30;99.90
16655;DHT22;8441;51.344;7.022;2024-03-08T04:52:11;1.30;99.90
16655;DHT22;8441;51.344;7.022;2024-03-08T04:54:40;1.30;99.90
16655;DHT22;8441;51.344;7.022;2024-03-08T04:57:07;1.30;99.90
16655;DHT22;8441;51.344;7.022;2024-03-08T04:59:34;1.30;99.90
16655;DHT22;8441;51.344;7.022;2024-03-08T05:02:01;1.40;99.90
16655;DHT22;8441;51.344;7.022;2024-03-08T05:04:29;1.50;99.90
16655;DHT22;8441;51.344;7.022;2024-03-08T05:06:56;1.50;99.90
16655;DHT22;8441;51.344;7.022;2024-03-08T05:09:26;1.50;99.90
16655;DHT22;8441;51.344;7.022;2024-03-08T05:11:58;1.50;99.90
16655;DHT22;8441;51.344;7.022;2024-03-08T05:14:27;1.50;99.90
16655;DHT22;8441;51.344;7.022;2024-03-08T05:16:55;1.50;99.90
16655;DHT22;8441;51.344;7.022;2024-03-08T05:19:22;1.40;99.90
16655;DHT22;8441;51.344;7.022;2024-03-08T05:21:50;1.30;99.90
16655;DHT22;8441;51.344;7.022;2024-03-08T05:24:18;1.30;99.90
16655;DHT22;8441;51.344;7.022;2024-03-08T05:26:46;1.20;99.90
16655;DHT22;8441;51.344;7.022;2024-03-08T05:29:15;1.20;99.90
16655;DHT22;8441;51.344;7.022;2024-03-08T05:31:47;1.20;99.90
16655;DHT22;8441;51.344;7.022;2024-03-08T05:34:15;1.20;99.90
16655;DHT22;8441;51.344;7.022;2024-03-08T05:36:42;1.20;99.90
16655;DHT22;8441;51.344;7.022;2024-03-08T05:39:10;1.30;99.90
16655;DHT22;8441;51.344;7.022;2024-03-08T05:41:38;1.30;99.90
16655;DHT22;8441;51.344;7.022;2024-03-08T05:44:06;1.30;99.90
16655;DHT22;8441;51.344;7.022;2024-03-08T05:46:35;1.20;99.90
16655;DHT22;8441;51.344;7.022;2024-03-08T05:49:02;1.10;99.90
16655;DHT22;8441;51.344;7.022;2024-03-08T05:51:31;1.10;99.90
16655;DHT22;8441;51.344;7.022;2024-03-08T05:54:00;1.00;99.90
16655;DHT22;8441;51.344;7.022;2024-03-08T05:56:28;1.00;99.90
16655;DHT22;8441;51.344;7.022;2024-03-08T05:58:56;1.00;99.90
16655;DHT22;8441;51.344;7.022;2024-03-08T06:01:23;1.10;99.90
16655;DHT22;8441;51.344;7.022;2024-03-08T06:03:53;1.10;99.90
16655;DHT22;8441;51.344;7.022;2024-03-08T06:06:21;1.00;99.90
16655;DHT22;8441;51.344;7.022;2024-03-08T06:08:49;1.00;99.90
16655;DHT22;8441;51.344;7.022;2024-03-08T06:11:17;1.10;99.90
16655;DHT22;8441;51.344;7.022;2024-03-08T06:13:44;1.10;99.90
16655;DHT22;8441;51.344;7.022;2024-03-08T06:16:12;1.20;99.90
16655;DHT22;8441;51.344;7.022;2024-03-08T06:18:39;1.20;99.90
16655;DHT22;8441;51.344;7.022;2024-03-08T06:21:08;1.10;99.90
16655;DHT22;8441;51.344;7.022;2024-03-08T06:23:37;1.10;99.90
16655;DHT22;8441;51.344;7.022;2024-03-08T06:26:05;1.10;99.90
16655;DHT22;8441;51.344;7.022;2024-03-08T06:28:32;1.10;99.90
16655;DHT22;8441;51.344;7.022;2024-03-08T06:31:00;1.10;99.90
16655;DHT22;8441;51.344;7.022;2024-03-08T06:33:28;1.10;99.90
16655;DHT22;8441;51.344;7.022;2024-03-08T06:35:56;1.10;99.90
16655;DHT22;8441;51.344;7.022;2024-03-08T06:38:25;1.10;99.90
16655;DHT22;8441;51.344;7.022;2024-03-08T06:40:53;1.20;99.90
16655;DHT22;8441;51.344;7.022;2024-03-08T06:43:20;1.30;99.90
16655;DHT22;8441;51.344;7.022;2024-03-08T06:45:48;1.30;99.90
16655;DHT22;8441;51.344;7.022;2024-03-08T06:48:15;1.30;99.90
16655;DHT22;8441;51.344;7.022;2024-03-08T06:50:43;1.30;99.90
16655;DHT22;8441;51.344;7.022;2024-03-08T06:53:11;1.50;99.90
16655;DHT22;8441;51.344;7.022;2024-03-08T06:55:40;1.60;99.90
16655;DHT22;8441;51.344;7.022;2024-03-08T06:58:08;1.60;99.90
16655;DHT22;8441;51.344;7.022;2024-03-08T07:00:36;1.60;99.90
16655;DHT22;8441;51.344;7.022;2024-03-08T07:03:06;1.80;99.90
16655;DHT22;8441;51.344;7.022;2024-03-08T07:05:37;1.80;99.90
16655;DHT22;8441;51.344;7.022;2024-03-08T07:08:06;1.80;99.90
16655;DHT22;8441;51.344;7.022;2024-03-08T07:10:33;1.80;99.90
16655;DHT22;8441;51.344;7.022;2024-03-08T07:13:02;1.90;99.90
16655;DHT22;8441;51.344;7.022;2024-03-08T07:15:30;1.90;99.90
16655;DHT22;8441;51.344;7.022;2024-03-08T07:17:58;2.00;99.90
16655;DHT22;8441;51.344;7.022;2024-03-08T07:20:25;2.20;99.90
16655;DHT22;8441;51.344;7.022;2024-03-08T07:22:54;2.20;99.90
16655;DHT22;8441;51.344;7.022;2024-03-08T07:25:22;2.30;99.90
16655;DHT22;8441;51.344;7.022;2024-03-08T07:27:50;2.40;99.90
16655;DHT22;8441;51.344;7.022;2024-03-08T07:30:20;2.50;99.90
16655;DHT22;8441;51.344;7.022;2024-03-08T07:33:05;2.50;99.90
16655;DHT22;8441;51.344;7.022;2024-03-08T07:35:33;2.50;99.90
16655;DHT22;8441;51.344;7.022;2024-03-08T07:38:03;2.60;99.90
16655;DHT22;8441;51.344;7.022;2024-03-08T07:40:31;2.60;99.90
16655;DHT22;8441;51.344;7.022;2024-03-08T07:42:59;2.70;99.90
16655;DHT22;8441;51.344;7.022;2024-03-08T07:45:28;2.80;99.90
16655;DHT22;8441;51.344;7.022;2024-03-08T07:47:56;2.80;99.90
16655;DHT22;8441;51.344;7.022;2024-03-08T07:50:23;2.90;99.90
16655;DHT22;8441;51.344;7.022;2024-03-08T07:52:51;3.00;99.90
16655;DHT22;8441;51.344;7.022;2024-03-08T07:55:18;2.90;99.90
16655;DHT22;8441;51.344;7.022;2024-03-08T07:57:46;3.00;99.90
16655;DHT22;8441;51.344;7.022;2024-03-08T08:00:15;3.00;99.90
16655;DHT22;8441;51.344;7.022;2024-03-08T08:02:46;3.10;99.90
16655;DHT22;8441;51.344;7.022;2024-03-08T08:05:14;3.10;99.90
16655;DHT22;8441;51.344;7.022;2024-03-08T08:07:44;3.10;99.90
16655;DHT22;8441;51.344;7.022;2024-03-08T08:10:12;3.10;99.90
16655;DHT22;8441;51.344;7.022;2024-03-08T08:12:44;3.30;99.90
16655;DHT22;8441;51.344;7.022;2024-03-08T08:15:13;3.40;99.90
16655;DHT22;8441;51.344;7.022;2024-03-08T08:17:40;3.40;99.90
16655;DHT22;8441;51.344;7.022;2024-03-08T08:20:10;3.50;99.90
16655;DHT22;8441;51.344;7.022;2024-03-08T08:22:38;3.50;99.90
16655;DHT22;8441;51.344;7.022;2024-03-08T08:25:06;3.60;99.90
16655;DHT22;8441;51.344;7.022;2024-03-08T08:27:34;3.70;99.90
16655;DHT22;8441;51.344;7.022;2024-03-08T08:30:02;3.80;99.90
16655;DHT22;8441;51.344;7.022;2024-03-08T08:32:34;3.80;99.90
16655;DHT22;8441;51.344;7.022;2024-03-08T08:35:02;3.90;99.90
16655;DHT22;8441;51.344;7.022;2024-03-08T08:37:31;4.00;99.90
16655;DHT22;8441;51.344;7.022;2024-03-08T08:40:01;4.10;99.90
16655;DHT22;8441;51.344;7.022;2024-03-08T08:42:31;4.10;99.90
16655;DHT22;8441;51.344;7.022;2024-03-08T08:44:59;4.20;99.90
16655;DHT22;8441;51.344;7.022;2024-03-08T08:47:28;4.20;99.90
16655;DHT22;8441;51.344;7.022;2024-03-08T08:49:56;4.30;99.90
16655;DHT22;8441;51.344;7.022;2024-03-08T08:52:23;4.40;99.90
16655;DHT22;8441;51.344;7.022;2024-03-08T08:54:52;4.40;99.90
16655;DHT22;8441;51.344;7.022;2024-03-08T08:57:19;4.40;99.90
16655;DHT22;8441;51.344;7.022;2024-03-08T08:59:46;4.50;99.90
16655;DHT22;8441;51.344;7.022;2024-03-08T09:02:13;4.60;99.90
16655;DHT22;8441;51.344;7.022;2024-03-08T09:04:42;4.70;99.90
16655;DHT22;8441;51.344;7.022;2024-03-08T09:07:10;4.80;99.90
16655;DHT22;8441;51.344;7.022;2024-03-08T09:09:39;4.80;99.90
16655;DHT22;8441;51.344;7.022;2024-03-08T09:12:09;4.90;99.90
16655;DHT22;8441;51.344;7.022;2024-03-08T09:14:39;5.00;99.90
16655;DHT22;8441;51.344;7.022;2024-03-08T09:17:07;5.10;99.90
16655;DHT22;8441;51.344;7.022;2024-03-08T09:19:34;5.20;99.90
16655;DHT22;8441;51.344;7.022;2024-03-08T09:22:02;5.30;99.90
16655;DHT22;8441;51.344;7.022;2024-03-08T09:24:31;5.40;99.90
16655;DHT22;8441;51.344;7.022;2024-03-08T09:26:58;5.50;99.90
16655;DHT22;8441;51.344;7.022;2024-03-08T09:29:27;5.60;99.90
16655;DHT22;8441;51.344;7.022;2024-03-08T09:31:54;5.70;99.90
16655;DHT22;8441;51.344;7.022;2024-03-08T09:34:22;5.70;99.90
16655;DHT22;8441;51.344;7.022;2024-03-08T09:36:49;5.80;99.90
16655;DHT22;8441;51.344;7.022;2024-03-08T09:39:17;5.90;99.90
16655;DHT22;8441;51.344;7.022;2024-03-08T09:41:46;5.90;99.90
16655;DHT22;8441;51.344;7.022;2024-03-08T09:44:15;6.00;99.90
16655;DHT22;8441;51.344;7.022;2024-03-08T09:46:45;6.10;99.90
16655;DHT22;8441;51.344;7.022;2024-03-08T09:49:13;6.20;99.90
16655;DHT22;8441;51.344;7.022;2024-03-08T09:51:41;6.30;99.90
16655;DHT22;8441;51.344;7.022;2024-03-08T09:54:08;6.40;99.90
16655;DHT22;8441;51.344;7.022;2024-03-08T09:56:36;6.40;99.90
16655;DHT22;8441;51.344;7.022;2024-03-08T09:59:04;6.60;99.90
16655;DHT22;8441;51.344;7.022;2024-03-08T10:01:50;6.80;99.90
16655;DHT22;8441;51.344;7.022;2024-03-08T10:04:18;6.90;99.90
16655;DHT22;8441;51.344;7.022;2024-03-08T10:06:46;6.90;99.90
16655;DHT22;8441;51.344;7.022;2024-03-08T10:09:14;7.00;99.90
16655;DHT22;8441;51.344;7.022;2024-03-08T10:11:42;7.10;99.90
16655;DHT22;8441;51.344;7.022;2024-03-08T10:14:10;7.20;99.90
16655;DHT22;8441;51.344;7.022;2024-03-08T10:16:38;7.10;99.90
16655;DHT22;8441;51.344;7.022;2024-03-08T10:19:07;7.20;99.90
16655;DHT22;8441;51.344;7.022;2024-03-08T10:21:35;7.30;99.90
16655;DHT22;8441;51.344;7.022;2024-03-08T10:24:03;7.30;99.90
16655;DHT22;8441;51.344;7.022;2024-03-08T10:26:30;7.30;99.90
16655;DHT22;8441;51.344;7.022;2024-03-08T10:28:57;7.40;99.90
16655;DHT22;8441;51.344;7.022;2024-03-08T10:31:25;7.40;99.90
16655;DHT22;8441;51.344;7.022;2024-03-08T10:33:52;7.50;99.90
16655;DHT22;8441;51.344;7.022;2024-03-08T10:36:21;7.50;99.90
16655;DHT22;8441;51.344;7.022;2024-03-08T10:38:51;7.60;99.90
16655;DHT22;8441;51.344;7.022;2024-03-08T10:41:19;7.70;99.90
16655;DHT22;8441;51.344;7.022;2024-03-08T10:44:10;7.80;99.90
16655;DHT22;8441;51.344;7.022;2024-03-08T10:46:58;7.80;99.90
16655;DHT22;8441;51.344;7.022;2024-03-08T10:49:31;7.80;99.90
16655;DHT22;8441;51.344;7.022;2024-03-08T10:52:03;7.90;99.90
16655;DHT22;8441;51.344;7.022;2024-03-08T10:54:31;8.00;99.90
16655;DHT22;8441;51.344;7.022;2024-03-08T10:57:01;8.10;99.90
16655;DHT22;8441;51.344;7.022;2024-03-08T10:59:31;8.20;99.90
16655;DHT22;8441;51.344;7.022;2024-03-08T11:01:59;8.20;99.90
16655;DHT22;8441;51.344;7.022;2024-03-08T11:04:27;8.20;99.90
16655;DHT22;8441;51.344;7.022;2024-03-08T11:07:02;8.30;99.90
16655;DHT22;8441;51.344;7.022;2024-03-08T11:09:33;8.30;99.90
16655;DHT22;8441;51.344;7.022;2024-03-08T11:12:28;8.40;99.90
16655;DHT22;8441;51.344;7.022;2024-03-08T11:14:59;8.40;99.90
16655;DHT22;8441;51.344;7.022;2024-03-08T11:17:46;8.50;99.90
16655;DHT22;8441;51.344;7.022;2024-03-08T11:20:15;8.60;99.90
16655;DHT22;8441;51.344;7.022;2024-03-08T11:22:48;8.70;99.90
16655;DHT22;8441;51.344;7.022;2024-03-08T11:25:34;8.70;99.90
16655;DHT22;8441;51.344;7.022;2024-03-08T11:28:13;8.70;99.90
16655;DHT22;8441;51.344;7.022;2024-03-08T11:30:47;8.60;99.90
16655;DHT22;8441;51.344;7.022;2024-03-08T11:33:36;8.70;99.90
16655;DHT22;8441;51.344;7.022;2024-03-08T11:36:11;8.80;99.90
16655;DHT22;8441;51.344;7.022;2024-03-08T11:38:44;8.90;99.90
16655;DHT22;8441;51.344;7.022;2024-03-08T11:41:14;9.10;99.90
16655;DHT22;8441;51.344;7.022;2024-03-08T11:43:41;9.10;99.90
16655;DHT22;8441;51.344;7.022;2024-03-08T11:46:09;9.20;99.90
16655;DHT22;8441;51.344;7.022;2024-03-08T11:48:38;9.20;99.90
16655;DHT22;8441;51.344;7.022;2024-03-08T11:51:07;9.30;99.90
16655;DHT22;8441;51.344;7.022;2024-03-08T11:53:36;9.40;98.40
16655;DHT22;8441;51.344;7.022;2024-03-08T11:56:08;9.40;99.20
16655;DHT22;8441;51.344;7.022;2024-03-08T11:58:37;9.30;97.70
16655;DHT22;8441;51.344;7.022;2024-03-08T12:01:04;9.40;97.90
16655;DHT22;8441;51.344;7.022;2024-03-08T12:03:33;9.40;98.20
16655;DHT22;8441;51.344;7.022;2024-03-08T12:06:00;9.50;99.30
16655;DHT22;8441;51.344;7.022;2024-03-08T12:08:30;9.50;98.10
16655;DHT22;8441;51.344;7.022;2024-03-08T12:10:58;9.60;98.80
16655;DHT22;8441;51.344;7.022;2024-03-08T12:13:28;9.70;99.20
16655;DHT22;8441;51.344;7.022;2024-03-08T12:15:57;9.70;97.80
16655;DHT22;8441;51.344;7.022;2024-03-08T12:18:25;9.70;97.90
16655;DHT22;8441;51.344;7.022;2024-03-08T12:21:04;9.70;97.40
16655;DHT22;8441;51.344;7.022;2024-03-08T12:23:33;9.70;97.40
16655;DHT22;8441;51.344;7.022;2024-03-08T12:26:10;9.70;97.50
16655;DHT22;8441;51.344;7.022;2024-03-08T12:28:40;9.70;96.60
16655;DHT22;8441;51.344;7.022;2024-03-08T12:31:12;9.80;95.80
16655;DHT22;8441;51.344;7.022;2024-03-08T12:33:48;9.80;95.80
16655;DHT22;8441;51.344;7.022;2024-03-08T12:36:16;9.80;96.40
16655;DHT22;8441;51.344;7.022;2024-03-08T12:38:44;9.90;96.40
16655;DHT22;8441;51.344;7.022;2024-03-08T12:41:13;9.90;96.20
16655;DHT22;8441;51.344;7.022;2024-03-08T12:43:43;10.00;96.30
16655;DHT22;8441;51.344;7.022;2024-03-08T12:46:14;9.90;95.80
16655;DHT22;8441;51.344;7.022;2024-03-08T12:48:42;10.10;95.90
16655;DHT22;8441;51.344;7.022;2024-03-08T12:51:12;10.10;96.10
16655;DHT22;8441;51.344;7.022;2024-03-08T12:53:41;10.20;95.60
16655;DHT22;8441;51.344;7.022;2024-03-08T12:56:10;10.30;95.00
16655;DHT22;8441;51.344;7.022;2024-03-08T12:58:37;10.20;96.20
16655;DHT22;8441;51.344;7.022;2024-03-08T13:01:07;10.20;95.70
16655;DHT22;8441;51.344;7.022;2024-03-08T13:03:35;10.30;95.10
16655;DHT22;8441;51.344;7.022;2024-03-08T13:06:03;10.30;95.10
16655;DHT22;8441;51.344;7.022;2024-03-08T13:08:31;10.30;95.10
16655;DHT22;8441;51.344;7.022;2024-03-08T13:11:01;10.30;96.50
16655;DHT22;8441;51.344;7.022;2024-03-08T13:13:29;10.40;96.00
16655;DHT22;8441;51.344;7.022;2024-03-08T13:15:56;10.40;94.50
16655;DHT22;8441;51.344;7.022;2024-03-08T13:18:27;10.40;95.00
16655;DHT22;8441;51.344;7.022;2024-03-08T13:20:54;10.30;95.10
16655;DHT22;8441;51.344;7.022;2024-03-08T13:23:23;10.40;94.50
16655;DHT22;8441;51.344;7.022;2024-03-08T13:25:50;10.40;94.70
16655;DHT22;8441;51.344;7.022;2024-03-08T13:28:18;10.40;94.50
16655;DHT22;8441;51.344;7.022;2024-03-08T13:30:48;10.40;93.90
16655;DHT22;8441;51.344;7.022;2024-03-08T13:33:16;10.30;93.90
16655;DHT22;8441;51.344;7.022;2024-03-08T13:35:46;10.40;93.90
16655;DHT22;8441;51.344;7.022;2024-03-08T13:38:13;10.40;94.30
16655;DHT22;8441;51.344;7.022;2024-03-08T13:40:40;10.40;94.10
16655;DHT22;8441;51.344;7.022;2024-03-08T13:43:08;10.50;94.30
16655;DHT22;8441;51.344;7.022;2024-03-08T13:45:36;10.60;94.10
16655;DHT22;8441;51.344;7.022;2024-03-08T13:48:05;10.60;94.80
16655;DHT22;8441;51.344;7.022;2024-03-08T13:50:33;10.60;94.30
16655;DHT22;8441;51.344;7.022;2024-03-08T13:53:02;10.60;94.10
16655;DHT22;8441;51.344;7.022;2024-03-08T13:55:29;10.60;94.00
16655;DHT22;8441;51.344;7.022;2024-03-08T13:57:57;10.70;94.10
16655;DHT22;8441;51.344;7.022;2024-03-08T14:00:25;10.70;93.10
16655;DHT22;8441;51.344;7.022;2024-03-08T14:02:59;10.60;93.00
16655;DHT22;8441;51.344;7.022;2024-03-08T14:05:26;10.50;93.40
16655;DHT22;8441;51.344;7.022;2024-03-08T14:07:53;10.50;93.50
16655;DHT22;8441;51.344;7.022;2024-03-08T14:10:22;10.50;94.10
16655;DHT22;8441;51.344;7.022;2024-03-08T14:12:50;10.60;94.10
16655;DHT22;8441;51.344;7.022;2024-03-08T14:15:17;10.70;93.60
16655;DHT22;8441;51.344;7.022;2024-03-08T14:17:44;10.60;94.00
16655;DHT22;8441;51.344;7.022;2024-03-08T14:20:12;10.50;94.30
16655;DHT22;8441;51.344;7.022;2024-03-08T14:22:39;10.50;94.50
16655;DHT22;8441;51.344;7.022;2024-03-08T14:25:08;10.50;94.90
16655;DHT22;8441;51.344;7.022;2024-03-08T14:27:44;10.50;94.50
16655;DHT22;8441;51.344;7.022;2024-03-08T14:30:12;10.50;94.50
16655;DHT22;8441;51.344;7.022;2024-03-08T14:32:40;10.50;94.90
16655;DHT22;8441;51.344;7.022;2024-03-08T14:35:07;10.60;94.70
16655;DHT22;8441;51.344;7.022;2024-03-08T14:37:36;10.50;94.70
16655;DHT22;8441;51.344;7.022;2024-03-08T14:40:05;10.60;94.50
16655;DHT22;8441;51.344;7.022;2024-03-08T14:42:34;10.60;94.40
16655;DHT22;8441;51.344;7.022;2024-03-08T14:45:03;10.60;93.40
16655;DHT22;8441;51.344;7.022;2024-03-08T14:47:31;10.60;94.10
16655;DHT22;8441;51.344;7.022;2024-03-08T14:49:59;10.60;93.50
16655;DHT22;8441;51.344;7.022;2024-03-08T14:52:27;10.50;94.10
16655;DHT22;8441;51.344;7.022;2024-03-08T14:54:54;10.50;94.30
16655;DHT22;8441;51.344;7.022;2024-03-08T14:57:22;10.50;93.00
16655;DHT22;8441;51.344;7.022;2024-03-08T14:59:49;10.50;93.00
16655;DHT22;8441;51.344;7.022;2024-03-08T15:02:18;10.40;93.50
16655;DHT22;8441;51.344;7.022;2024-03-08T15:04:48;10.50;94.50
16655;DHT22;8441;51.344;7.022;2024-03-08T15:07:23;10.50;94.20
16655;DHT22;8441;51.344;7.022;2024-03-08T15:09:51;10.50;94.10
16655;DHT22;8441;51.344;7.022;2024-03-08T15:12:18;10.40;94.70
16655;DHT22;8441;51.344;7.022;2024-03-08T15:14:46;10.40;94.70
16655;DHT22;8441;51.344;7.022;2024-03-08T15:17:18;10.30;94.70
16655;DHT22;8441;51.344;7.022;2024-03-08T15:19:47;10.30;95.30
16655;DHT22;8441;51.344;7.022;2024-03-08T15:22:15;10.40;94.90
16655;DHT22;8441;51.344;7.022;2024-03-08T15:24:43;10.30;95.10
16655;DHT22;8441;51.344;7.022;2024-03-08T15:27:11;10.30;95.30
16655;DHT22;8441;51.344;7.022;2024-03-08T15:29:38;10.30;95.00
16655;DHT22;8441;51.344;7.022;2024-03-08T15:32:05;10.30;95.90
16655;DHT22;8441;51.344;7.022;2024-03-08T15:34:36;10.30;95.60
16655;DHT22;8441;51.344;7.022;2024-03-08T15:37:04;10.20;96.00
16655;DHT22;8441;51.344;7.022;2024-03-08T15:39:32;10.30;95.30
16655;DHT22;8441;51.344;7.022;2024-03-08T15:42:00;10.20;95.50
16655;DHT22;8441;51.344;7.022;2024-03-08T15:44:27;10.30;95.70
16655;DHT22;8441;51.344;7.022;2024-03-08T15:46:55;10.20;95.70
16655;DHT22;8441;51.344;7.022;2024-03-08T15:49:22;10.20;95.10
16655;DHT22;8441;51.344;7.022;2024-03-08T15:51:53;10.10;95.50
16655;DHT22;8441;51.344;7.022;2024-03-08T15:54:21;10.10;94.90
16655;DHT22;8441;51.344;7.022;2024-03-08T15:56:48;10.10;95.50
16655;DHT22;8441;51.344;7.022;2024-03-08T15:59:15;10.10;94.70
16655;DHT22;8441;51.344;7.022;2024-03-08T16:01:43;10.10;94.90
16655;DHT22;8441;51.344;7.022;2024-03-08T16:04:14;10.00;95.20
16655;DHT22;8441;51.344;7.022;2024-03-08T16:06:42;10.10;94.50